createdAt,value
2018-04-10T00:02:17.458Z,8.00
2018-04-10T00:04:44.929Z,7.97
2018-04-10T00:07:12.404Z,7.57
2018-04-10T00:09:39.941Z,7.00
2018-04-10T00:12:07.469Z,8.27
2018-04-10T00:14:34.974Z,8.40
2018-04-10T00:17:02.472Z,8.20
2018-04-10T00:19:29.942Z,6.83
2018-04-10T00:21:57.403Z,6.40
2018-04-10T00:24:24.927Z,7.33
2018-04-10T00:26:52.421Z,7.20
2018-04-10T00:29:19.930Z,7.00
2018-04-10T00:31:47.402Z,7.70
2018-04-10T00:34:14.882Z,6.90
2018-04-10T00:36:42.357Z,7.30
2018-04-10T00:39:09.945Z,7.33
2018-04-10T00:41:37.453Z,6.93
2018-04-10T00:44:05.099Z,7.43
2018-04-10T00:46:32.594Z,7.37
2018-04-10T00:49:00.158Z,7.10
2018-04-10T00:51:27.610Z,6.80
2018-04-10T00:53:55.048Z,6.83
2018-04-10T00:56:22.518Z,6.60
2018-04-10T00:58:50.017Z,7.00
2018-04-10T01:01:17.567Z,6.70
2018-04-10T01:03:45.021Z,6.47
2018-04-10T01:06:12.483Z,6.90
2018-04-10T01:08:39.960Z,6.50
2018-04-10T01:11:07.488Z,6.60
2018-04-10T01:13:35.011Z,6.53
2018-04-10T01:16:02.475Z,6.57
2018-04-10T01:18:30.069Z,5.80
2018-04-10T01:20:57.533Z,6.67
2018-04-10T01:23:25.019Z,6.73
2018-04-10T01:25:52.477Z,6.20
2018-04-10T01:28:20.000Z,6.60
2018-04-10T01:30:47.456Z,6.00
2018-04-10T01:33:14.969Z,6.40
2018-04-10T01:35:42.525Z,6.70
2018-04-10T01:38:09.999Z,6.13
2018-04-10T01:40:37.459Z,6.00
2018-04-10T01:43:04.924Z,6.13
2018-04-10T01:45:32.387Z,6.93
2018-04-10T01:47:59.893Z,6.53
2018-04-10T01:50:27.385Z,7.17
2018-04-10T01:52:54.886Z,6.20
2018-04-10T01:55:22.397Z,6.23
2018-04-10T01:57:49.886Z,7.67
2018-04-10T02:00:17.386Z,7.33
2018-04-10T02:02:44.864Z,7.03
2018-04-10T02:05:12.352Z,7.50
2018-04-10T02:07:39.996Z,7.33
2018-04-10T02:10:07.474Z,8.60
2018-04-10T02:12:34.967Z,8.63
2018-04-10T02:15:02.448Z,9.50
2018-04-10T02:17:29.934Z,8.90
2018-04-10T02:19:57.401Z,8.77
2018-04-10T02:22:25.089Z,9.23
2018-04-10T02:24:52.588Z,9.30
2018-04-10T02:27:20.065Z,9.40
2018-04-10T02:29:47.535Z,8.90
2018-04-10T02:32:14.999Z,8.43
2018-04-10T02:34:42.513Z,8.07
2018-04-10T02:37:09.981Z,8.60
2018-04-10T02:39:37.574Z,8.73
2018-04-10T02:42:05.037Z,9.00
2018-04-10T02:44:32.514Z,8.47
2018-04-10T02:46:59.981Z,7.37
2018-04-10T02:49:27.439Z,8.83
2018-04-10T02:51:55.158Z,9.60
2018-04-10T02:54:22.655Z,8.70
2018-04-10T02:56:50.116Z,8.70
2018-04-10T02:59:17.570Z,9.47
2018-04-10T03:01:45.043Z,9.67
2018-04-10T03:04:12.604Z,8.63
2018-04-10T03:06:40.100Z,9.77
2018-04-10T03:09:07.840Z,10.00
2018-04-10T03:11:35.316Z,9.50
2018-04-10T03:14:03.051Z,9.90
2018-04-10T03:16:30.504Z,10.53
2018-04-10T03:18:58.156Z,9.77
2018-04-10T03:21:25.772Z,10.23
2018-04-10T03:23:53.238Z,9.47
2018-04-10T03:26:20.697Z,8.70
2018-04-10T03:28:48.156Z,9.40
2018-04-10T03:31:15.624Z,9.10
2018-04-10T03:33:43.102Z,9.00
2018-04-10T03:36:10.620Z,8.33
2018-04-10T03:38:38.208Z,9.80
2018-04-10T03:41:05.673Z,8.80
2018-04-10T03:43:33.896Z,8.53
2018-04-10T03:46:01.484Z,9.33
2018-04-10T03:48:29.113Z,8.60
2018-04-10T03:50:56.666Z,8.00
2018-04-10T03:53:24.127Z,8.23
2018-04-10T03:55:51.607Z,7.73
2018-04-10T03:58:19.069Z,7.40
2018-04-10T04:00:46.728Z,6.40
2018-04-10T04:03:14.218Z,7.50
2018-04-10T04:05:41.764Z,7.43
2018-04-10T04:08:09.262Z,7.03
2018-04-10T04:10:37.048Z,8.20
2018-04-10T04:13:05.342Z,8.23
2018-04-10T04:15:32.899Z,9.37
2018-04-10T04:18:00.781Z,10.40
2018-04-10T04:20:40.864Z,11.43
2018-04-10T04:23:08.352Z,10.03
2018-04-10T04:25:35.839Z,11.20
2018-04-10T04:28:03.339Z,11.13
2018-04-10T04:30:30.804Z,11.03
2018-04-10T04:32:58.512Z,10.47
2018-04-10T04:35:26.021Z,10.83
2018-04-10T04:37:53.504Z,11.90
2018-04-10T04:40:21.239Z,12.20
2018-04-10T04:42:48.723Z,11.63
2018-04-10T04:45:16.202Z,10.43
2018-04-10T04:47:43.692Z,11.00
2018-04-10T04:50:11.163Z,11.13
2018-04-10T04:52:38.646Z,11.40
2018-04-10T04:55:06.128Z,10.43
2018-04-10T04:57:33.693Z,9.90
2018-04-10T05:00:01.176Z,10.33
2018-04-10T05:02:28.628Z,11.27
2018-04-10T05:04:56.103Z,12.10
2018-04-10T05:07:23.600Z,10.93
2018-04-10T05:09:51.102Z,11.43
2018-04-10T05:12:18.637Z,12.43
2018-04-10T05:14:46.278Z,11.50
2018-04-10T05:17:13.754Z,10.77
2018-04-10T05:19:41.232Z,11.53
2018-04-10T05:22:08.722Z,10.80
2018-04-10T05:24:36.216Z,11.43
2018-04-10T05:27:03.696Z,10.57
2018-04-10T05:29:31.198Z,11.80
2018-04-10T05:31:58.668Z,12.17
2018-04-10T05:34:26.154Z,12.07
2018-04-10T05:36:53.742Z,11.10
2018-04-10T05:39:21.232Z,10.93
2018-04-10T05:41:48.779Z,11.03
2018-04-10T05:44:16.276Z,9.90
2018-04-10T05:46:43.752Z,12.10
2018-04-10T05:49:11.285Z,12.03
2018-04-10T05:51:38.755Z,12.20
2018-04-10T05:54:06.252Z,11.60
2018-04-10T05:56:33.789Z,12.87
2018-04-10T05:59:01.257Z,13.83
2018-04-10T06:01:28.743Z,11.07
2018-04-10T06:03:56.262Z,12.07
2018-04-10T06:06:23.766Z,12.10
2018-04-10T06:08:51.261Z,12.10
2018-04-10T06:11:18.735Z,12.03
2018-04-10T06:13:46.206Z,14.90
2018-04-10T06:16:13.672Z,12.00
2018-04-10T06:18:41.151Z,15.10
2018-04-10T06:21:08.665Z,11.80
2018-04-10T06:23:36.260Z,12.63
2018-04-10T06:26:03.751Z,13.00
2018-04-10T06:28:31.231Z,12.30
2018-04-10T06:30:58.720Z,13.07
2018-04-10T06:33:26.260Z,12.27
2018-04-10T06:35:53.777Z,11.20
2018-04-10T06:38:21.265Z,11.53
2018-04-10T06:40:48.759Z,12.50
2018-04-10T06:43:16.249Z,11.47
2018-04-10T06:45:43.735Z,11.57
2018-04-10T06:48:11.222Z,11.43
2018-04-10T06:50:38.754Z,11.47
2018-04-10T06:53:06.259Z,11.43
2018-04-10T06:55:33.777Z,11.27
2018-04-10T06:58:01.249Z,11.07
2018-04-10T07:00:28.716Z,10.63
2018-04-10T07:02:56.208Z,10.93
2018-04-10T07:05:23.681Z,10.40
2018-04-10T07:07:51.158Z,10.77
2018-04-10T07:10:18.627Z,10.23
2018-04-10T07:12:46.100Z,9.57
2018-04-10T07:15:13.575Z,9.10
2018-04-10T07:17:41.041Z,9.40
2018-04-10T07:20:08.547Z,9.20
2018-04-10T07:22:36.117Z,7.97
2018-04-10T07:25:03.937Z,7.67
2018-04-10T07:27:31.505Z,7.57
2018-04-10T07:29:58.991Z,8.73
2018-04-10T07:32:26.468Z,9.10
2018-04-10T07:34:53.988Z,8.40
2018-04-10T07:37:21.485Z,8.73
2018-04-10T07:39:49.513Z,8.57
2018-04-10T07:42:17.165Z,9.53
2018-04-10T07:44:44.727Z,9.30
2018-04-10T07:47:12.499Z,10.00
2018-04-10T07:49:40.096Z,10.47
2018-04-10T07:52:07.564Z,9.67
2018-04-10T07:54:35.166Z,9.87
2018-04-10T07:57:02.786Z,9.53
2018-04-10T07:59:30.486Z,10.30
2018-04-10T08:01:57.984Z,10.13
2018-04-10T08:04:25.473Z,11.70
2018-04-10T08:06:52.973Z,10.27
2018-04-10T08:09:20.468Z,9.00
2018-04-10T08:11:47.946Z,8.37
2018-04-10T08:14:15.465Z,8.90
2018-04-10T08:16:42.943Z,8.40
2018-04-10T08:19:10.445Z,7.97
2018-04-10T08:21:37.917Z,8.20
2018-04-10T08:24:05.415Z,8.40
2018-04-10T08:26:33.032Z,7.90
2018-04-10T08:29:00.504Z,8.23
2018-04-10T08:31:27.995Z,8.67
2018-04-10T08:33:55.521Z,7.97
2018-04-10T08:36:23.003Z,7.80
2018-04-10T08:38:50.479Z,8.40
2018-04-10T08:41:17.987Z,8.93
2018-04-10T08:43:45.584Z,8.10
2018-04-10T08:46:13.126Z,7.70
2018-04-10T08:48:40.611Z,6.90
2018-04-10T08:51:08.100Z,7.30
2018-04-10T08:53:35.580Z,6.17
2018-04-10T08:56:03.421Z,6.23
2018-04-10T08:58:31.988Z,6.50
2018-04-10T09:00:59.637Z,6.70
2018-04-10T09:03:27.127Z,7.13
2018-04-10T09:05:54.600Z,6.57
2018-04-10T09:08:22.098Z,6.10
2018-04-10T09:10:49.588Z,7.10
2018-04-10T09:13:17.092Z,6.73
2018-04-10T09:15:44.579Z,6.63
2018-04-10T09:18:12.123Z,6.60
2018-04-10T09:20:39.633Z,6.33
2018-04-10T09:23:07.243Z,6.47
2018-04-10T09:25:34.813Z,6.53
2018-04-10T09:28:02.303Z,5.63
2018-04-10T09:30:29.827Z,6.40
2018-04-10T09:32:57.443Z,6.30
2018-04-10T09:35:24.982Z,6.37
2018-04-10T09:37:52.528Z,6.73
2018-04-10T09:40:20.014Z,7.27
2018-04-10T09:42:47.525Z,6.90
2018-04-10T09:45:15.003Z,6.53
2018-04-10T09:47:42.473Z,6.00
2018-04-10T09:50:10.019Z,5.90
2018-04-10T09:52:37.502Z,6.07
2018-04-10T09:55:05.062Z,5.87
2018-04-10T09:57:32.593Z,6.73
2018-04-10T10:00:00.115Z,5.27
2018-04-10T10:02:27.619Z,6.73
2018-04-10T10:04:55.299Z,5.77
2018-04-10T10:07:22.792Z,6.20
2018-04-10T10:09:50.303Z,4.90
2018-04-10T10:12:17.850Z,5.60
2018-04-10T10:14:45.341Z,5.73
2018-04-10T10:17:13.582Z,5.20
2018-04-10T10:19:41.134Z,4.67
2018-04-10T10:22:08.654Z,6.63
2018-04-10T10:24:36.166Z,4.83
2018-04-10T10:27:03.868Z,5.20
2018-04-10T10:29:31.349Z,4.30
2018-04-10T10:31:58.916Z,5.40
2018-04-10T10:34:26.414Z,4.70
2018-04-10T10:36:53.923Z,4.80
2018-04-10T10:39:21.416Z,8.80
2018-04-10T10:41:48.893Z,5.30
2018-04-10T10:44:16.376Z,4.20
2018-04-10T10:46:43.887Z,5.83
2018-04-10T10:49:11.362Z,6.10
2018-04-10T10:51:38.877Z,5.53
2018-04-10T10:54:06.353Z,5.87
2018-04-10T10:56:33.834Z,6.13
2018-04-10T10:59:01.360Z,5.30
2018-04-10T11:01:28.827Z,5.70
2018-04-10T11:03:56.316Z,6.00
2018-04-10T11:06:23.878Z,6.40
2018-04-10T11:08:51.434Z,6.93
2018-04-10T11:11:18.995Z,6.67
2018-04-10T11:13:46.583Z,6.93
2018-04-10T11:16:14.067Z,6.77
2018-04-10T11:18:41.569Z,8.40
2018-04-10T11:21:09.042Z,7.67
2018-04-10T11:23:36.563Z,9.80
2018-04-10T11:26:04.252Z,8.37
2018-04-10T11:28:31.814Z,8.07
2018-04-10T11:30:59.289Z,7.87
2018-04-10T11:33:26.801Z,7.07
2018-04-10T11:35:54.307Z,7.57
2018-04-10T11:38:21.825Z,6.83
2018-04-10T11:40:49.445Z,7.13
2018-04-10T11:43:16.952Z,6.70
2018-04-10T11:45:44.446Z,9.13
2018-04-10T11:48:11.930Z,8.00
2018-04-10T11:50:39.439Z,7.77
2018-04-10T11:53:07.049Z,7.67
2018-04-10T11:55:34.555Z,7.80
2018-04-10T11:58:02.098Z,8.43
2018-04-10T12:00:29.660Z,10.37
2018-04-10T12:02:57.184Z,8.60
2018-04-10T12:05:24.671Z,7.47
2018-04-10T12:07:52.154Z,7.77
2018-04-10T12:10:19.638Z,7.33
2018-04-10T12:12:47.095Z,7.40
2018-04-10T12:15:14.581Z,7.37
2018-04-10T12:17:42.067Z,8.25
2018-04-10T12:20:09.567Z,6.93
2018-04-10T12:22:37.085Z,8.10
2018-04-10T12:25:04.767Z,6.55
2018-04-10T12:27:32.404Z,8.27
2018-04-10T12:29:59.994Z,8.23
2018-04-10T12:32:27.542Z,9.35
2018-04-10T12:34:55.047Z,7.15
2018-04-10T12:37:22.555Z,7.82
2018-04-10T12:39:50.077Z,9.73
2018-04-10T12:42:17.677Z,7.40
2018-04-10T12:44:45.171Z,8.57
2018-04-10T12:47:12.645Z,8.18
2018-04-10T12:49:40.136Z,8.55
2018-04-10T12:52:07.623Z,8.50
2018-04-10T12:54:35.154Z,8.05
2018-04-10T12:57:02.807Z,7.65
2018-04-10T12:59:30.285Z,6.57
2018-04-10T13:01:57.767Z,7.40
2018-04-10T13:04:25.237Z,6.85
2018-04-10T13:06:52.820Z,7.50
2018-04-10T13:09:20.334Z,8.43
2018-04-10T13:11:47.839Z,6.22
2018-04-10T13:14:15.326Z,5.85
2018-04-10T13:16:42.847Z,6.22
2018-04-10T13:19:10.330Z,6.12
2018-04-10T13:21:37.902Z,7.00
2018-04-10T13:24:05.544Z,6.30
2018-04-10T13:26:33.031Z,5.85
2018-04-10T13:29:00.539Z,6.05
2018-04-10T13:31:28.055Z,7.18
2018-04-10T13:33:55.573Z,5.80
2018-04-10T13:36:23.067Z,6.10
2018-04-10T13:38:50.551Z,6.70
2018-04-10T13:41:18.094Z,7.47
2018-04-10T13:43:45.686Z,7.45
2018-04-10T13:46:13.220Z,7.18
2018-04-10T13:48:41.178Z,8.20
2018-04-10T13:51:08.804Z,9.73
2018-04-10T13:53:36.291Z,8.88
2018-04-10T13:56:03.985Z,7.68
2018-04-10T13:58:31.484Z,7.70
2018-04-10T14:00:58.960Z,6.50
2018-04-10T14:03:26.437Z,7.50
2018-04-10T14:05:53.933Z,6.90
2018-04-10T14:08:21.460Z,7.40
2018-04-10T14:10:48.939Z,8.80
2018-04-10T14:13:16.422Z,6.87
2018-04-10T14:15:43.916Z,7.30
2018-04-10T14:18:11.400Z,7.30
2018-04-10T14:20:38.875Z,7.43
2018-04-10T14:23:06.380Z,6.43
2018-04-10T14:25:33.880Z,5.10
2018-04-10T14:28:01.411Z,4.77
2018-04-10T14:30:28.905Z,5.40
2018-04-10T14:32:56.599Z,4.90
2018-04-10T14:35:24.079Z,4.70
2018-04-10T14:37:51.642Z,4.50
2018-04-10T14:40:19.336Z,5.00
2018-04-10T14:42:46.988Z,4.93
2018-04-10T14:45:14.482Z,4.73
2018-04-10T14:47:41.954Z,5.67
2018-04-10T14:50:09.509Z,4.00
2018-04-10T14:52:37.041Z,4.33
2018-04-10T14:55:04.516Z,4.50
2018-04-10T14:57:32.050Z,5.10
2018-04-10T14:59:59.649Z,5.33
2018-04-10T15:02:27.164Z,4.97
2018-04-10T15:04:54.679Z,4.73
2018-04-10T15:07:22.137Z,4.67
2018-04-10T15:09:49.628Z,5.63
2018-04-10T15:12:17.110Z,5.50
2018-04-10T15:14:44.764Z,5.97
2018-04-10T15:17:12.225Z,3.97
2018-04-10T15:19:39.720Z,3.40
2018-04-10T15:22:07.178Z,2.77
2018-04-10T15:24:34.707Z,3.17
2018-04-10T15:27:02.322Z,2.30
2018-04-10T15:29:29.810Z,2.63
2018-04-10T15:31:57.411Z,2.70
2018-04-10T15:34:24.887Z,1.90
2018-04-10T15:36:52.501Z,2.07
2018-04-10T15:39:19.993Z,2.37
2018-04-10T15:41:47.638Z,2.30
2018-04-10T15:44:15.118Z,2.50
2018-04-10T15:46:42.884Z,1.87
2018-04-10T15:49:10.401Z,1.73
2018-04-10T15:51:37.980Z,1.90
2018-04-10T15:54:05.717Z,1.93
2018-04-10T15:56:33.245Z,1.60
2018-04-10T15:59:00.777Z,1.57
2018-04-10T16:01:28.264Z,1.60
2018-04-10T16:03:55.744Z,1.40
2018-04-10T16:06:23.258Z,1.50
2018-04-10T16:08:50.734Z,1.20
2018-04-10T16:11:18.457Z,1.17
2018-04-10T16:13:46.087Z,1.20
2018-04-10T16:16:13.635Z,1.20
2018-04-10T16:18:41.242Z,1.03
2018-04-10T16:21:08.743Z,0.67
2018-04-10T16:23:36.416Z,1.27
2018-04-10T16:26:03.903Z,0.87
2018-04-10T16:28:31.457Z,0.80
2018-04-10T16:30:59.292Z,1.03
2018-04-10T16:33:26.781Z,1.00
2018-04-10T16:35:54.258Z,1.07
2018-04-10T16:38:21.867Z,0.87
2018-04-10T16:40:49.400Z,1.00
2018-04-10T16:43:16.911Z,1.20
2018-04-10T16:45:44.463Z,1.10
2018-04-10T16:48:11.947Z,1.23
2018-04-10T16:50:39.696Z,1.00
2018-04-10T16:53:07.210Z,1.00
2018-04-10T16:55:34.868Z,1.10
2018-04-10T16:58:02.510Z,1.03
2018-04-10T17:00:30.070Z,1.27
2018-04-10T17:02:57.564Z,0.87
2018-04-10T17:05:25.066Z,1.60
2018-04-10T17:07:52.536Z,1.90
2018-04-10T17:10:19.999Z,1.80
2018-04-10T17:12:47.594Z,1.53
2018-04-10T17:15:15.129Z,2.00
2018-04-10T17:17:42.643Z,2.40
2018-04-10T17:20:10.222Z,2.17
2018-04-10T17:22:37.744Z,2.83
2018-04-10T17:25:05.282Z,2.73
2018-04-10T17:27:32.760Z,2.80
2018-04-10T17:30:00.260Z,2.50
2018-04-10T17:32:27.801Z,3.40
2018-04-10T17:34:55.283Z,2.53
2018-04-10T17:37:22.764Z,3.67
2018-04-10T17:39:50.232Z,3.67
2018-04-10T17:42:17.730Z,4.03
2018-04-10T17:44:45.289Z,4.30
2018-04-10T17:47:12.818Z,3.40
2018-04-10T17:49:40.302Z,4.73
2018-04-10T17:52:07.860Z,2.90
2018-04-10T17:54:37.706Z,3.50
2018-04-10T17:57:05.184Z,3.40
2018-04-10T17:59:32.765Z,3.27
2018-04-10T18:02:00.428Z,3.33
2018-04-10T18:04:27.940Z,3.07
2018-04-10T18:06:55.420Z,2.33
2018-04-10T18:09:23.109Z,1.97
2018-04-10T18:11:50.580Z,2.80
2018-04-10T18:14:18.095Z,1.93
2018-04-10T18:16:45.563Z,2.60
2018-04-10T18:19:13.568Z,2.03
2018-04-10T18:21:41.732Z,2.80
2018-04-10T18:24:09.688Z,3.00
2018-04-10T18:26:38.411Z,2.57
2018-04-10T18:29:13.176Z,2.93
2018-04-10T18:31:41.252Z,2.60
2018-04-10T18:34:08.824Z,2.00
2018-04-10T18:36:36.774Z,1.90
2018-04-10T18:39:04.419Z,1.70
2018-04-10T18:41:32.234Z,1.80
2018-04-10T18:43:59.923Z,1.97
2018-04-10T18:46:27.384Z,1.60
2018-04-10T18:48:54.881Z,1.63
2018-04-10T18:51:22.498Z,1.70
2018-04-10T18:53:49.992Z,1.50
2018-04-10T18:56:17.455Z,1.80
2018-04-10T18:58:45.036Z,2.33
2018-04-10T19:01:12.507Z,1.97
2018-04-10T19:03:39.978Z,1.67
2018-04-10T19:06:07.460Z,1.70
2018-04-10T19:08:35.296Z,1.50
2018-04-10T19:11:02.794Z,1.90
2018-04-10T19:13:30.396Z,1.50
2018-04-10T19:15:57.878Z,1.70
2018-04-10T19:18:25.366Z,1.83
2018-04-10T19:20:52.883Z,1.37
2018-04-10T19:23:20.358Z,1.47
2018-04-10T19:25:47.924Z,1.60
2018-04-10T19:28:15.434Z,1.67
2018-04-10T19:30:43.054Z,1.57
2018-04-10T19:33:10.539Z,1.40
2018-04-10T19:35:38.071Z,1.50
2018-04-10T19:38:05.596Z,1.20
2018-04-10T19:40:33.149Z,1.27
2018-04-10T19:43:11.798Z,1.20
2018-04-10T19:45:40.383Z,1.40
2018-04-10T19:48:07.860Z,1.50
2018-04-10T19:50:35.326Z,1.60
2018-04-10T19:53:02.808Z,1.60
2018-04-10T19:55:30.327Z,1.40
2018-04-10T19:57:57.800Z,1.63
2018-04-10T20:00:25.326Z,1.50
2018-04-10T20:02:52.934Z,1.60
2018-04-10T20:05:20.427Z,1.67
2018-04-10T20:07:47.999Z,2.00
2018-04-10T20:10:15.765Z,1.93
2018-04-10T20:12:43.291Z,2.57
2018-04-10T20:15:10.959Z,2.10
2018-04-10T20:17:38.456Z,2.43
2018-04-10T20:20:06.102Z,1.87
2018-04-10T20:22:33.704Z,2.27
2018-04-10T20:25:01.238Z,1.63
2018-04-10T20:27:28.989Z,2.20
2018-04-10T20:29:56.496Z,2.30
2018-04-10T20:32:24.064Z,4.50
2018-04-10T20:34:51.698Z,3.17
2018-04-10T20:37:19.297Z,2.83
2018-04-10T20:39:46.800Z,2.20
2018-04-10T20:42:14.264Z,2.10
2018-04-10T20:44:41.847Z,2.10
2018-04-10T20:47:09.306Z,2.20
2018-04-10T20:49:36.833Z,2.30
2018-04-10T20:52:04.356Z,2.30
2018-04-10T20:54:31.858Z,3.00
2018-04-10T20:56:59.429Z,2.13
2018-04-10T20:59:26.987Z,2.20
2018-04-10T21:01:54.663Z,2.23
2018-04-10T21:04:22.245Z,2.10
2018-04-10T21:06:49.723Z,2.30
2018-04-10T21:09:17.479Z,3.00
2018-04-10T21:11:44.985Z,3.17
2018-04-10T21:14:12.607Z,2.63
2018-04-10T21:16:40.322Z,3.57
2018-04-10T21:19:07.987Z,3.13
2018-04-10T21:21:35.488Z,2.40
2018-04-10T21:24:03.023Z,3.60
2018-04-10T21:26:30.632Z,2.70
2018-04-10T21:28:58.101Z,2.90
2018-04-10T21:31:25.685Z,2.60
2018-04-10T21:33:53.255Z,2.17
2018-04-10T21:36:20.839Z,3.00
2018-04-10T21:38:48.334Z,3.20
2018-04-10T21:41:16.108Z,2.93
2018-04-10T21:43:43.818Z,3.13
2018-04-10T21:46:11.280Z,2.97
2018-04-10T21:48:38.899Z,3.07
2018-04-10T21:51:14.080Z,3.83
2018-04-10T21:53:42.536Z,4.73
2018-04-10T21:56:10.173Z,4.37
2018-04-10T21:58:37.640Z,4.00
2018-04-10T22:01:05.151Z,5.33
2018-04-10T22:03:32.630Z,3.90
2018-04-10T22:06:04.392Z,3.83
2018-04-10T22:08:31.918Z,4.23
2018-04-10T22:11:00.286Z,4.47
2018-04-10T22:13:27.927Z,4.03
2018-04-10T22:15:55.388Z,4.67
2018-04-10T22:18:22.851Z,3.90
2018-04-10T22:20:50.483Z,5.00
2018-04-10T22:23:17.998Z,4.70
2018-04-10T22:25:45.464Z,4.70
2018-04-10T22:28:12.946Z,5.10
2018-04-10T22:30:40.404Z,4.63
2018-04-10T22:33:08.101Z,4.03
2018-04-10T22:35:35.591Z,4.70
2018-04-10T22:38:03.118Z,5.30
2018-04-10T22:40:30.615Z,5.37
2018-04-10T22:42:58.090Z,5.20
2018-04-10T22:45:25.558Z,4.60
2018-04-10T22:47:53.098Z,3.70
2018-04-10T22:50:23.093Z,4.33
2018-04-10T22:52:52.704Z,3.27
2018-04-10T22:55:23.049Z,4.33
2018-04-10T22:57:51.757Z,4.20
2018-04-10T23:03:18.858Z,4.57
2018-04-10T23:05:48.027Z,4.50
2018-04-10T23:08:16.199Z,4.80
2018-04-10T23:10:47.293Z,4.20
2018-04-10T23:13:16.098Z,5.00
2018-04-10T23:15:47.381Z,4.57
2018-04-10T23:18:17.533Z,5.03
2018-04-10T23:20:46.513Z,5.67
2018-04-10T23:23:13.994Z,5.30
2018-04-10T23:25:41.475Z,5.90
2018-04-10T23:28:08.963Z,6.47
2018-04-10T23:30:36.434Z,4.37
2018-04-10T23:33:03.901Z,4.90
2018-04-10T23:35:31.378Z,4.40
2018-04-10T23:37:58.875Z,4.27
2018-04-10T23:40:26.464Z,5.00
2018-04-10T23:42:53.974Z,5.10
2018-04-10T23:45:21.464Z,5.10
2018-04-10T23:47:48.949Z,4.50
2018-04-10T23:50:16.481Z,5.07
2018-04-10T23:52:43.957Z,4.90
2018-04-10T23:55:11.419Z,5.57
2018-04-10T23:57:38.876Z,5.60
